• Join FlightAware (Why Join?)
  • Login
  • US Flag 
01:54PM EDT


 

Airport Tracker/Info


-or-


 

Live Flight TrackerFlight Track Log ✈ TYR532 ✈ 10-Aug-2014 ✈ LIRQ / FLR - LOWW / VIE

Flight Track Log - Related Links

Times and Time Zones

All times are in EDT time to prevent confusion due to time zone crossing. See the TYR532 flight status page for this flight to view local times or setup timezone preferences in your user account.

Time Position Orientation Groundspeed Altitude Reporting Facility
EDT Latitude Longitude Course Direction KTS MPH feet Rate Location/Type
09:18AM 44.1497 11.5897 39° Northeast  Level Estimated
09:19AM 44.2175 11.6671 39° Northeast  Level Estimated
09:20AM 44.2852 11.7447 39° Northeast  Level Estimated
09:21AM 44.3529 11.8225 39° Northeast  Level Estimated
09:22AM 44.4206 11.9005 39° Northeast  Level Estimated
09:23AM 44.4881 11.9787 40° Northeast  Level Estimated
09:24AM 44.5557 12.0570 40° Northeast  Level Estimated
09:25AM 44.6231 12.1355 40° Northeast  Level Estimated
09:26AM 44.6906 12.2142 40° Northeast  Level Estimated
09:27AM 44.7579 12.2931 40° Northeast  Level Estimated
09:28AM 44.8252 12.3722 40° Northeast  Level Estimated
09:29AM 44.8925 12.4515 40° Northeast  Level Estimated
09:30AM 44.9597 12.5309 40° Northeast  Level Estimated
09:31AM 45.0269 12.6105 40° Northeast  Level Estimated
09:32AM 45.0939 12.6903 40° Northeast  Level Estimated
09:33AM 45.1610 12.7703 40° Northeast  Level Estimated
09:34AM 45.2280 12.8505 40° Northeast  Level Estimated
09:35AM 45.2949 12.9309 40° Northeast  Level Estimated
09:36AM 45.3618 13.0115 40° Northeast  Level Estimated
09:37AM 45.4286 13.0922 40° Northeast  Level Estimated
09:38AM 45.4953 13.1732 40° Northeast  Level Estimated
09:39AM 45.5620 13.2543 40° Northeast  Level Estimated
09:40AM 45.6287 13.3357 40° Northeast  Level Estimated
09:41AM 45.6952 13.4172 41° Northeast  Level Estimated
09:42AM 45.7618 13.4990 41° Northeast  Level Estimated
09:43AM 45.8282 13.5809 41° Northeast  Level Estimated
09:44AM 45.8946 13.6630 41° Northeast  Level Estimated
09:45AM 45.9610 13.7453 41° Northeast  Level Estimated
09:46AM 46.0273 13.8278 41° Northeast  Level Estimated
09:47AM 46.0935 13.9105 41° Northeast  Level Estimated
09:48AM 46.1597 13.9934 41° Northeast  Level Estimated
09:49AM 46.2258 14.0765 41° Northeast  Level Estimated
09:50AM 46.2918 14.1598 41° Northeast  Level Estimated
09:51AM 46.3578 14.2434 41° Northeast  Level Estimated
09:52AM 46.4237 14.3271 41° Northeast  Level Estimated
09:53AM 46.4896 14.4110 41° Northeast  Level Estimated
09:54AM 46.5554 14.4951 41° Northeast  Level Estimated
09:55AM 46.6212 14.5794 41° Northeast  Level Estimated
09:56AM 46.6868 14.6639 41° Northeast  Level Estimated
09:57AM 46.7524 14.7487 41° Northeast  Level Estimated
09:58AM 46.8180 14.8336 42° Northeast  Level Estimated
09:59AM 46.8835 14.9187 42° Northeast  Level Estimated
10:00AM 46.9489 15.0041 42° Northeast  Level Estimated
10:01AM 47.0143 15.0897 42° Northeast  Level Estimated
10:02AM 47.0796 15.1754 42° Northeast  Level Estimated
10:03AM 47.1448 15.2614 42° Northeast  Level Estimated
10:04AM 47.2100 15.3476 42° Northeast  Level Estimated
10:05AM 47.2751 15.4340 42° Northeast  Level Estimated
10:06AM 47.3401 15.5206 42° Northeast  Level Estimated
10:07AM 47.4051 15.6075 42° Northeast  Level Estimated
10:08AM 47.4700 15.6945 42° Northeast  Level Estimated
10:09AM 47.5349 15.7818 42° Northeast  Level Estimated
10:10AM 47.5997 15.8693 42° Northeast  Level Estimated
10:11AM 47.6644 15.9570 42° Northeast  Level Estimated
10:12AM 47.7290 16.0449 42° Northeast  Level Estimated
10:13AM 47.7936 16.1330 43° Northeast  Level Estimated
10:14AM 47.8581 16.2213 43° Northeast  Level Estimated
10:15AM 47.9226 16.3099 43° Northeast  Level Estimated
10:16AM 47.9869 16.3987 43° Northeast  Level Estimated
10:17AM 48.0512 16.4877 43° Northeast  Level Estimated
10:18AM 48.1103 16.5697 43° Northeast  Level Estimated
10:19AM 48.1103 16.5697 North  Level Estimated
10:20AM 48.1103 16.5697 North  Level Estimated
10:21AM 48.1103 16.5697 North  Level Estimated
10:22AM 48.1103 16.5697 North  Level Estimated
10:23AM 48.1103 16.5697 North  Level Estimated
10:24AM 48.1103 16.5697 North  Level Estimated
10:25AM 48.1103 16.5697 North  Level Estimated
10:26AM 48.1103 16.5697 North  Level Estimated
10:27AM 48.1103 16.5697 North  Level Estimated
10:28AM 48.1103 16.5697 North  Level Estimated
10:29AM 48.1103 16.5697 North  Level Estimated